createdAt,value
2018-10-16T00:00:31.334Z,3.40
2018-10-16T00:01:31.352Z,3.20
2018-10-16T00:02:31.364Z,6.20
2018-10-16T00:03:31.383Z,6.70
2018-10-16T00:04:31.694Z,4.10
2018-10-16T00:05:31.614Z,4.20
2018-10-16T00:06:31.413Z,4.00
2018-10-16T00:07:31.639Z,2.80
2018-10-16T00:08:31.452Z,2.60
2018-10-16T00:09:31.467Z,2.70
2018-10-16T00:10:31.581Z,5.10
2018-10-16T00:11:31.479Z,7.20
2018-10-16T00:12:31.491Z,4.60
2018-10-16T00:13:31.524Z,3.90
2018-10-16T00:14:31.533Z,4.00
2018-10-16T00:15:31.632Z,3.40
2018-10-16T00:16:31.558Z,5.20
2018-10-16T00:17:31.577Z,3.60
2018-10-16T00:18:31.591Z,3.00
2018-10-16T00:19:31.590Z,4.90
2018-10-16T00:20:31.715Z,3.70
2018-10-16T00:21:31.633Z,2.90
2018-10-16T00:22:31.645Z,3.40
2018-10-16T00:23:31.656Z,4.60
2018-10-16T00:24:31.674Z,4.50
2018-10-16T00:25:31.785Z,3.50
2018-10-16T00:26:31.702Z,3.40
2018-10-16T00:27:31.710Z,6.70
2018-10-16T00:28:31.729Z,3.70
2018-10-16T00:29:31.730Z,4.10
2018-10-16T00:30:32.008Z,3.60
2018-10-16T00:31:31.772Z,3.30
2018-10-16T00:32:31.813Z,3.80
2018-10-16T00:33:31.796Z,4.40
2018-10-16T00:34:31.812Z,3.30
2018-10-16T00:35:31.926Z,4.20
2018-10-16T00:36:31.842Z,2.20
2018-10-16T00:37:31.856Z,3.70
2018-10-16T00:38:31.869Z,4.70
2018-10-16T00:39:31.865Z,2.00
2018-10-16T00:40:31.993Z,3.80
2018-10-16T00:41:31.906Z,3.00
2018-10-16T00:42:31.921Z,3.60
2018-10-16T00:43:31.935Z,2.80
2018-10-16T00:44:31.938Z,3.90
2018-10-16T00:45:32.048Z,1.90
2018-10-16T00:46:31.975Z,3.70
2018-10-16T00:47:31.988Z,2.60
2018-10-16T00:48:32.004Z,2.10
2018-10-16T00:49:32.024Z,3.90
2018-10-16T00:50:32.287Z,4.80
2018-10-16T00:51:32.041Z,3.80
2018-10-16T00:52:32.042Z,3.20
2018-10-16T00:53:32.070Z,4.80
2018-10-16T00:54:32.074Z,3.00
2018-10-16T00:55:32.203Z,2.90
2018-10-16T00:56:32.099Z,2.50
2018-10-16T00:57:32.127Z,2.60
2018-10-16T00:58:32.140Z,2.20
2018-10-16T00:59:32.156Z,1.70
2018-10-16T01:00:32.370Z,2.20
2018-10-16T01:01:32.187Z,2.50
2018-10-16T01:02:32.197Z,1.60
2018-10-16T01:03:32.413Z,2.20
2018-10-16T01:04:32.231Z,2.30
2018-10-16T01:05:32.339Z,2.80
2018-10-16T01:06:32.236Z,3.80
2018-10-16T01:07:32.269Z,3.70
2018-10-16T01:08:32.278Z,4.50
2018-10-16T01:09:32.293Z,4.60
2018-10-16T01:10:32.409Z,3.10
2018-10-16T01:11:32.307Z,2.40
2018-10-16T01:12:32.338Z,2.00
2018-10-16T01:13:32.351Z,2.00
2018-10-16T01:14:32.363Z,2.20
2018-10-16T01:15:32.475Z,1.90
2018-10-16T01:16:32.595Z,2.20
2018-10-16T01:17:32.407Z,2.30
2018-10-16T01:18:32.417Z,2.10
2018-10-16T01:19:32.430Z,2.20
2018-10-16T01:20:32.442Z,2.50
2018-10-16T01:21:32.712Z,4.10
2018-10-16T01:22:32.478Z,3.30
2018-10-16T01:23:32.491Z,2.70
2018-10-16T01:24:32.549Z,3.80
2018-10-16T01:25:32.514Z,5.90
2018-10-16T01:26:32.531Z,5.50
2018-10-16T01:27:32.643Z,6.80
2018-10-16T01:28:32.553Z,4.60
2018-10-16T01:29:32.555Z,4.30
2018-10-16T01:30:32.583Z,2.50
2018-10-16T01:31:32.596Z,3.20
2018-10-16T01:32:32.863Z,6.30
2018-10-16T01:33:32.629Z,4.90
2018-10-16T01:34:32.644Z,3.90
2018-10-16T01:35:32.659Z,2.40
2018-10-16T01:36:32.671Z,4.80
2018-10-16T01:37:32.784Z,3.90
2018-10-16T01:38:32.698Z,5.20
2018-10-16T01:39:32.704Z,6.60
2018-10-16T01:40:32.723Z,3.20
2018-10-16T01:41:32.734Z,2.80
2018-10-16T01:42:33.000Z,3.70
2018-10-16T01:43:32.765Z,3.00
2018-10-16T01:44:32.781Z,3.00
2018-10-16T01:45:32.791Z,2.30
2018-10-16T01:46:32.806Z,2.30
2018-10-16T01:47:32.921Z,2.80
2018-10-16T01:48:32.832Z,5.70
2018-10-16T01:49:32.846Z,3.70
2018-10-16T01:50:32.849Z,4.00
2018-10-16T01:51:32.882Z,5.90
2018-10-16T01:52:32.988Z,4.70
2018-10-16T01:53:32.907Z,4.60
2018-10-16T01:54:32.918Z,6.10
2018-10-16T01:55:32.935Z,4.80
2018-10-16T01:56:32.948Z,4.60
2018-10-16T01:57:33.058Z,6.40
2018-10-16T01:58:32.977Z,5.90
2018-10-16T01:59:32.990Z,8.30
2018-10-16T02:00:33.000Z,5.50
2018-10-16T02:01:33.016Z,8.60
2018-10-16T02:02:33.229Z,7.50
2018-10-16T02:03:33.030Z,6.20
2018-10-16T02:04:33.044Z,6.70
2018-10-16T02:05:33.075Z,5.90
2018-10-16T02:06:33.070Z,9.50
2018-10-16T02:07:33.200Z,5.20
2018-10-16T02:08:33.114Z,5.00
2018-10-16T02:09:33.125Z,7.50
2018-10-16T02:10:33.140Z,6.30
2018-10-16T02:11:33.155Z,7.80
2018-10-16T02:12:33.272Z,7.30
2018-10-16T02:13:33.184Z,7.00
2018-10-16T02:14:33.209Z,6.20
2018-10-16T02:15:33.209Z,5.10
2018-10-16T02:16:33.226Z,6.70
2018-10-16T02:17:33.339Z,6.10
2018-10-16T02:18:33.237Z,8.40
2018-10-16T02:19:33.265Z,7.30
2018-10-16T02:20:33.281Z,7.60
2018-10-16T02:21:33.299Z,8.80
2018-10-16T02:22:33.559Z,7.30
2018-10-16T02:23:33.325Z,8.50
2018-10-16T02:24:33.338Z,8.70
2018-10-16T02:25:33.337Z,7.20
2018-10-16T02:26:33.366Z,6.80
2018-10-16T02:27:33.475Z,6.60
2018-10-16T02:28:33.390Z,6.20
2018-10-16T02:29:33.407Z,7.50
2018-10-16T02:30:33.421Z,5.20
2018-10-16T02:31:33.420Z,5.30
2018-10-16T02:32:33.545Z,4.80
2018-10-16T02:33:33.459Z,5.40
2018-10-16T02:34:33.476Z,5.40
2018-10-16T02:35:33.490Z,7.20
2018-10-16T02:36:33.491Z,4.30
2018-10-16T02:37:33.618Z,4.40
2018-10-16T02:38:33.538Z,3.40
2018-10-16T02:39:33.550Z,3.20
2018-10-16T02:40:33.615Z,4.40
2018-10-16T02:41:33.564Z,4.20
2018-10-16T02:42:33.687Z,3.50
2018-10-16T02:43:33.600Z,3.30
2018-10-16T02:44:33.610Z,4.00
2018-10-16T02:45:33.629Z,3.30
2018-10-16T02:46:33.640Z,4.10
2018-10-16T02:47:33.904Z,9.00
2018-10-16T02:48:33.672Z,5.60
2018-10-16T02:49:33.699Z,6.90
2018-10-16T02:50:33.697Z,9.80
2018-10-16T02:51:33.708Z,9.10
2018-10-16T02:52:33.826Z,8.60
2018-10-16T02:53:33.741Z,10.70
2018-10-16T02:54:33.743Z,11.20
2018-10-16T02:55:33.766Z,9.30
2018-10-16T02:56:33.780Z,7.80
2018-10-16T02:57:33.891Z,8.50
2018-10-16T02:58:33.810Z,8.60
2018-10-16T02:59:33.823Z,8.20
2018-10-16T03:00:33.836Z,6.70
2018-10-16T03:01:33.849Z,8.50
2018-10-16T03:02:33.967Z,8.40
2018-10-16T03:03:33.861Z,7.50
2018-10-16T03:04:33.887Z,8.00
2018-10-16T03:05:33.899Z,8.60
2018-10-16T03:06:33.909Z,9.90
2018-10-16T03:07:34.030Z,11.10
2018-10-16T03:08:33.944Z,11.50
2018-10-16T03:09:33.963Z,9.50
2018-10-16T03:10:33.988Z,9.40
2018-10-16T03:11:33.991Z,10.30
2018-10-16T03:12:34.252Z,11.60
2018-10-16T03:13:34.016Z,13.60
2018-10-16T03:14:34.034Z,13.90
2018-10-16T03:15:34.044Z,10.90
2018-10-16T03:16:34.056Z,11.30
2018-10-16T03:17:34.319Z,12.70
2018-10-16T03:18:34.086Z,11.40
2018-10-16T03:19:34.083Z,13.00
2018-10-16T03:20:34.175Z,12.10
2018-10-16T03:21:34.129Z,14.10
2018-10-16T03:22:34.236Z,12.70
2018-10-16T03:23:34.153Z,13.80
2018-10-16T03:24:34.164Z,14.60
2018-10-16T03:25:34.181Z,14.60
2018-10-16T03:26:34.195Z,17.70
2018-10-16T03:27:34.310Z,17.60
2018-10-16T03:28:34.225Z,18.20
2018-10-16T03:29:34.223Z,17.60
2018-10-16T03:30:34.252Z,18.50
2018-10-16T03:31:34.261Z,16.90
2018-10-16T03:32:34.529Z,17.40
2018-10-16T03:33:34.285Z,16.90
2018-10-16T03:34:34.308Z,15.30
2018-10-16T03:35:34.316Z,14.70
2018-10-16T03:36:34.331Z,13.80
2018-10-16T03:37:34.601Z,13.60
2018-10-16T03:38:34.363Z,13.00
2018-10-16T03:39:34.372Z,11.00
2018-10-16T03:40:34.390Z,11.20
2018-10-16T03:41:34.402Z,10.60
2018-10-16T03:42:34.414Z,12.40
2018-10-16T03:43:34.533Z,5.60
2018-10-16T03:44:34.432Z,6.60
2018-10-16T03:45:34.461Z,7.90
2018-10-16T03:46:34.458Z,10.40
2018-10-16T03:47:34.502Z,10.30
2018-10-16T03:48:34.599Z,7.80
2018-10-16T03:49:34.514Z,8.60
2018-10-16T03:50:34.527Z,9.00
2018-10-16T03:51:34.542Z,10.10
2018-10-16T03:52:34.554Z,8.60
2018-10-16T03:53:34.672Z,7.80
2018-10-16T03:54:34.581Z,5.50
2018-10-16T03:55:34.594Z,6.10
2018-10-16T03:56:34.616Z,6.80
2018-10-16T03:57:34.624Z,8.00
2018-10-16T03:58:34.740Z,8.70
2018-10-16T03:59:34.652Z,8.30
2018-10-16T04:00:34.669Z,7.80
2018-10-16T04:01:34.681Z,10.30
2018-10-16T04:02:34.693Z,9.50
2018-10-16T04:03:34.809Z,10.50
2018-10-16T04:04:34.721Z,9.60
2018-10-16T04:05:34.737Z,19.50
2018-10-16T04:06:34.755Z,20.30
2018-10-16T04:07:34.757Z,12.70
2018-10-16T04:08:34.877Z,11.30
2018-10-16T04:09:34.791Z,12.50
2018-10-16T04:10:34.805Z,10.00
2018-10-16T04:11:34.816Z,7.40
2018-10-16T04:12:34.833Z,6.70
2018-10-16T04:13:34.949Z,6.10
2018-10-16T04:14:34.863Z,7.70
2018-10-16T04:15:34.873Z,5.60
2018-10-16T04:16:34.873Z,5.60
2018-10-16T04:17:34.902Z,5.20
2018-10-16T04:18:35.168Z,5.30
2018-10-16T04:19:34.917Z,6.90
2018-10-16T04:20:34.927Z,5.30
2018-10-16T04:21:34.959Z,6.00
2018-10-16T04:22:35.147Z,4.30
2018-10-16T04:23:35.083Z,5.60
2018-10-16T04:24:34.985Z,5.70
2018-10-16T04:25:35.014Z,5.90
2018-10-16T04:26:35.025Z,6.90
2018-10-16T04:27:35.038Z,6.90
2018-10-16T04:28:35.138Z,7.90
2018-10-16T04:29:35.056Z,10.50
2018-10-16T04:30:35.079Z,13.10
2018-10-16T04:31:35.094Z,14.90
2018-10-16T04:32:35.103Z,12.60
2018-10-16T04:33:35.223Z,14.50
2018-10-16T04:34:35.134Z,15.70
2018-10-16T04:35:35.151Z,15.20
2018-10-16T04:36:35.158Z,14.50
2018-10-16T04:37:35.176Z,15.90
2018-10-16T04:38:35.287Z,17.70
2018-10-16T04:39:35.185Z,14.50
2018-10-16T04:40:35.201Z,18.10
2018-10-16T04:41:35.283Z,15.20
2018-10-16T04:42:35.241Z,14.20
2018-10-16T04:43:35.385Z,16.90
2018-10-16T04:44:35.268Z,16.10
2018-10-16T04:45:35.283Z,17.70
2018-10-16T04:46:35.282Z,16.50
2018-10-16T04:47:35.327Z,16.80
2018-10-16T04:48:35.598Z,15.20
2018-10-16T04:49:35.339Z,15.90
2018-10-16T04:50:35.353Z,18.30
2018-10-16T04:51:35.351Z,16.80
2018-10-16T04:52:35.382Z,18.40
2018-10-16T04:53:35.396Z,17.90
2018-10-16T04:54:35.647Z,16.50
2018-10-16T04:55:35.423Z,18.50
2018-10-16T04:56:35.438Z,18.70
2018-10-16T04:57:35.449Z,17.60
2018-10-16T04:58:35.449Z,17.70
2018-10-16T04:59:35.461Z,19.70
2018-10-16T05:00:35.587Z,18.00
2018-10-16T05:01:35.502Z,18.50
2018-10-16T05:02:35.517Z,15.50
2018-10-16T05:03:35.520Z,19.60
2018-10-16T05:04:35.548Z,17.80
2018-10-16T05:05:35.660Z,20.20
2018-10-16T05:06:35.575Z,18.10
2018-10-16T05:07:35.589Z,16.00
2018-10-16T05:08:35.598Z,16.60
2018-10-16T05:09:35.612Z,17.00
2018-10-16T05:10:35.862Z,17.10
2018-10-16T05:11:35.637Z,20.60
2018-10-16T05:12:35.653Z,18.70
2018-10-16T05:13:35.667Z,15.50
2018-10-16T05:14:35.680Z,16.40
2018-10-16T05:15:35.943Z,16.50
2018-10-16T05:16:35.704Z,16.70
2018-10-16T05:17:35.722Z,20.40
2018-10-16T05:18:35.735Z,14.60
2018-10-16T05:19:35.749Z,16.20
2018-10-16T05:20:35.860Z,15.70
2018-10-16T05:21:35.772Z,11.50
2018-10-16T05:22:35.793Z,12.20
2018-10-16T05:23:35.804Z,9.70
2018-10-16T05:24:35.815Z,10.10
2018-10-16T05:25:35.924Z,11.20
2018-10-16T05:26:35.870Z,11.80
2018-10-16T05:27:35.917Z,12.40
2018-10-16T05:28:35.866Z,12.10
2018-10-16T05:29:35.882Z,13.30
2018-10-16T05:30:36.147Z,12.20
2018-10-16T05:31:36.169Z,9.80
2018-10-16T05:32:35.925Z,11.60
2018-10-16T05:33:35.923Z,11.00
2018-10-16T05:34:35.936Z,10.10
2018-10-16T05:35:36.063Z,9.60
2018-10-16T05:36:35.961Z,9.50
2018-10-16T05:37:35.991Z,10.40
2018-10-16T05:38:36.004Z,10.90
2018-10-16T05:39:35.999Z,11.50
2018-10-16T05:40:36.129Z,11.50
2018-10-16T05:41:36.042Z,9.80
2018-10-16T05:42:36.062Z,9.30
2018-10-16T05:43:36.076Z,12.40
2018-10-16T05:44:36.084Z,9.90
2018-10-16T05:45:36.201Z,10.80
2018-10-16T05:46:36.094Z,16.40
2018-10-16T05:47:36.124Z,11.20
2018-10-16T05:48:36.144Z,9.50
2018-10-16T05:49:36.139Z,10.00
2018-10-16T05:50:36.273Z,11.40
2018-10-16T05:51:36.182Z,13.00
2018-10-16T05:52:36.187Z,12.90
2018-10-16T05:53:36.205Z,10.90
2018-10-16T05:54:36.224Z,10.80
2018-10-16T05:55:36.331Z,11.20
2018-10-16T05:56:36.237Z,14.30
2018-10-16T05:57:36.261Z,12.90
2018-10-16T05:58:36.272Z,9.80
2018-10-16T05:59:36.287Z,11.10
2018-10-16T06:00:36.554Z,10.50
2018-10-16T06:01:36.317Z,13.10
2018-10-16T06:02:36.330Z,11.40
2018-10-16T06:03:36.343Z,10.60
2018-10-16T06:04:36.339Z,13.30
2018-10-16T06:05:36.426Z,13.40
2018-10-16T06:06:36.635Z,13.20
2018-10-16T06:07:36.393Z,13.70
2018-10-16T06:08:36.400Z,13.40
2018-10-16T06:09:36.413Z,14.70
2018-10-16T06:10:36.502Z,13.50
2018-10-16T06:11:36.450Z,15.20
2018-10-16T06:12:36.564Z,14.50
2018-10-16T06:13:36.500Z,15.40
2018-10-16T06:14:36.475Z,15.00
2018-10-16T06:15:36.513Z,17.50
2018-10-16T06:16:36.519Z,15.00
2018-10-16T06:17:36.617Z,15.70
2018-10-16T06:18:36.552Z,16.60
2018-10-16T06:19:36.556Z,15.10
2018-10-16T06:20:36.557Z,23.30
2018-10-16T06:21:36.575Z,21.00
2018-10-16T06:22:36.705Z,24.70
2018-10-16T06:23:36.612Z,25.00
2018-10-16T06:24:36.663Z,25.10
2018-10-16T06:25:36.640Z,28.30
2018-10-16T06:26:36.763Z,28.20
2018-10-16T06:27:36.775Z,27.70
2018-10-16T06:28:36.665Z,24.50
2018-10-16T06:29:36.696Z,22.20
2018-10-16T06:30:36.708Z,21.40
2018-10-16T06:31:36.722Z,22.20
2018-10-16T06:32:36.838Z,19.90
2018-10-16T06:33:36.737Z,21.10
2018-10-16T06:34:36.762Z,18.90
2018-10-16T06:35:36.776Z,22.20
2018-10-16T06:36:36.792Z,22.50
2018-10-16T06:37:36.903Z,25.10
2018-10-16T06:38:36.824Z,20.00
2018-10-16T06:39:36.836Z,22.80
2018-10-16T06:40:36.868Z,19.70
2018-10-16T06:41:36.922Z,20.90
2018-10-16T06:42:36.974Z,17.80
2018-10-16T06:43:36.892Z,16.90
2018-10-16T06:44:36.890Z,23.70
2018-10-16T06:45:36.903Z,21.00
2018-10-16T06:46:37.113Z,17.60
2018-10-16T06:47:37.146Z,16.30
2018-10-16T06:48:37.339Z,16.10
2018-10-16T06:49:36.968Z,17.60
2018-10-16T06:50:36.985Z,16.50
2018-10-16T06:51:36.995Z,15.90
2018-10-16T06:52:37.110Z,18.30
2018-10-16T06:53:37.021Z,16.20
2018-10-16T06:54:37.094Z,19.70
2018-10-16T06:55:37.053Z,16.90
2018-10-16T06:56:37.064Z,23.40
2018-10-16T06:57:37.329Z,17.70
2018-10-16T06:58:37.095Z,18.50
2018-10-16T06:59:37.107Z,17.20
2018-10-16T07:00:37.121Z,18.40
2018-10-16T07:01:37.140Z,17.80
2018-10-16T07:02:37.237Z,17.20
2018-10-16T07:03:37.164Z,20.80
2018-10-16T07:04:37.173Z,18.50
2018-10-16T07:05:37.190Z,16.90
2018-10-16T07:06:37.253Z,17.50
2018-10-16T07:07:37.465Z,21.30
2018-10-16T07:08:37.228Z,19.60
2018-10-16T07:09:37.241Z,18.50
2018-10-16T07:10:37.257Z,18.30
2018-10-16T07:11:37.268Z,18.00
2018-10-16T07:12:37.534Z,22.10
2018-10-16T07:13:37.297Z,20.90
2018-10-16T07:14:37.308Z,20.90
2018-10-16T07:15:37.321Z,21.90
2018-10-16T07:16:37.338Z,22.00
2018-10-16T07:17:37.350Z,19.00
2018-10-16T07:18:37.452Z,19.00
2018-10-16T07:19:37.379Z,21.60
2018-10-16T07:20:37.391Z,20.50
2018-10-16T07:21:37.404Z,21.20
2018-10-16T07:22:37.421Z,25.70
2018-10-16T07:23:37.810Z,17.20
2018-10-16T07:24:37.446Z,20.50
2018-10-16T07:25:37.448Z,21.90
2018-10-16T07:26:37.479Z,19.40
2018-10-16T07:27:37.485Z,19.80
2018-10-16T07:28:37.500Z,23.20
2018-10-16T07:29:37.769Z,24.30
2018-10-16T07:30:37.531Z,21.00
2018-10-16T07:31:37.541Z,20.70
2018-10-16T07:32:37.560Z,20.90
2018-10-16T07:33:37.571Z,20.90
2018-10-16T07:34:37.672Z,20.50
2018-10-16T07:35:37.596Z,21.50
2018-10-16T07:36:37.614Z,20.30
2018-10-16T07:37:37.670Z,20.10
2018-10-16T07:38:37.641Z,21.60
2018-10-16T07:39:37.751Z,20.00
2018-10-16T07:40:37.666Z,18.60
2018-10-16T07:41:37.680Z,19.10
2018-10-16T07:42:37.695Z,16.50
2018-10-16T07:43:37.708Z,19.20
2018-10-16T07:44:37.807Z,18.40
2018-10-16T07:45:37.733Z,18.50
2018-10-16T07:46:37.739Z,19.90
2018-10-16T07:47:37.764Z,17.20
2018-10-16T07:48:37.905Z,17.40
2018-10-16T07:49:37.874Z,19.90
2018-10-16T07:50:37.807Z,19.40
2018-10-16T07:51:37.816Z,18.10
2018-10-16T07:52:37.876Z,16.00
2018-10-16T07:53:37.831Z,17.80
2018-10-16T07:54:37.958Z,17.30
2018-10-16T07:55:37.872Z,19.10
2018-10-16T07:56:37.874Z,19.30
2018-10-16T07:57:37.899Z,20.20
2018-10-16T07:58:37.911Z,26.20
2018-10-16T07:59:38.025Z,24.00
2018-10-16T08:00:37.943Z,21.60
2018-10-16T08:01:37.960Z,19.10
2018-10-16T08:02:37.966Z,19.80
2018-10-16T08:03:37.984Z,20.50
2018-10-16T08:04:38.245Z,21.00
2018-10-16T08:05:38.012Z,18.60
2018-10-16T08:06:38.032Z,22.90
2018-10-16T08:07:38.034Z,20.60
2018-10-16T08:08:38.047Z,16.60
2018-10-16T08:09:38.162Z,18.10
2018-10-16T08:10:38.080Z,16.60
2018-10-16T08:11:38.077Z,16.30
2018-10-16T08:12:38.629Z,18.00
2018-10-16T08:13:38.120Z,18.20
2018-10-16T08:14:38.229Z,19.20
2018-10-16T08:15:38.143Z,17.30
2018-10-16T08:16:38.140Z,18.50
2018-10-16T08:17:38.173Z,18.90
2018-10-16T08:18:38.185Z,18.60
2018-10-16T08:19:38.452Z,16.80
2018-10-16T08:20:38.214Z,18.20
2018-10-16T08:21:38.224Z,16.30
2018-10-16T08:22:38.238Z,17.80
2018-10-16T08:23:38.255Z,16.90
2018-10-16T08:24:38.350Z,17.10
2018-10-16T08:25:38.280Z,18.80
2018-10-16T08:26:38.292Z,15.20
2018-10-16T08:27:38.341Z,17.90
2018-10-16T08:28:38.323Z,18.20
2018-10-16T08:29:38.435Z,14.20
2018-10-16T08:30:38.455Z,16.10
2018-10-16T08:31:38.355Z,13.80
2018-10-16T08:32:38.362Z,16.90
2018-10-16T08:33:38.387Z,14.00
2018-10-16T08:34:38.492Z,13.50
2018-10-16T08:35:38.429Z,15.00
2018-10-16T08:36:38.526Z,11.60
2018-10-16T08:37:38.442Z,17.00
2018-10-16T08:38:38.457Z,14.30
2018-10-16T08:39:38.475Z,14.50
2018-10-16T08:40:38.587Z,12.40
2018-10-16T08:41:38.498Z,17.10
2018-10-16T08:42:38.511Z,17.10
2018-10-16T08:43:38.520Z,16.20
2018-10-16T08:44:38.535Z,19.20
2018-10-16T08:45:38.650Z,18.90
2018-10-16T08:46:38.547Z,18.70
2018-10-16T08:47:38.655Z,18.10
2018-10-16T08:48:38.593Z,19.60
2018-10-16T08:49:38.594Z,17.80
2018-10-16T08:50:38.708Z,21.60
2018-10-16T08:51:38.632Z,15.20
2018-10-16T08:52:38.643Z,16.50
2018-10-16T08:53:38.656Z,17.30
2018-10-16T08:54:38.657Z,20.00
2018-10-16T08:55:38.937Z,20.00
2018-10-16T08:56:38.703Z,21.10
2018-10-16T08:57:38.712Z,22.80
2018-10-16T08:58:38.730Z,19.90
2018-10-16T08:59:38.740Z,20.20
2018-10-16T09:00:38.855Z,24.00
2018-10-16T09:01:38.770Z,18.80
2018-10-16T09:02:38.763Z,17.90
2018-10-16T09:03:38.796Z,16.30
2018-10-16T09:04:38.806Z,19.20
2018-10-16T09:05:38.919Z,16.30
2018-10-16T09:06:38.901Z,18.80
2018-10-16T09:07:38.851Z,17.60
2018-10-16T09:08:38.865Z,18.10
2018-10-16T09:09:38.876Z,15.10
2018-10-16T09:10:38.974Z,13.60
2018-10-16T09:11:38.902Z,15.80
2018-10-16T09:12:38.920Z,14.00
2018-10-16T09:13:38.915Z,17.00
2018-10-16T09:14:38.941Z,18.50
2018-10-16T09:15:39.193Z,21.20
2018-10-16T09:16:38.976Z,17.90
2018-10-16T09:17:38.985Z,18.40
2018-10-16T09:18:39.003Z,15.20
2018-10-16T09:19:39.015Z,18.10
2018-10-16T09:20:39.276Z,15.80
2018-10-16T09:21:39.044Z,18.20
2018-10-16T09:22:39.058Z,21.10
2018-10-16T09:23:39.056Z,21.10
2018-10-16T09:24:39.169Z,19.80
2018-10-16T09:25:39.182Z,21.90
2018-10-16T09:26:39.106Z,16.70
2018-10-16T09:27:39.124Z,16.20
2018-10-16T09:28:39.140Z,18.20
2018-10-16T09:29:39.157Z,19.50
2018-10-16T09:30:39.448Z,19.30
2018-10-16T09:31:39.178Z,20.20
2018-10-16T09:32:39.193Z,18.50
2018-10-16T09:33:39.209Z,17.40
2018-10-16T09:34:39.208Z,21.40
2018-10-16T09:35:39.340Z,14.90
2018-10-16T09:36:39.258Z,15.40
2018-10-16T09:37:39.336Z,15.80
2018-10-16T09:38:39.263Z,17.20
2018-10-16T09:39:39.297Z,20.00
2018-10-16T09:40:39.408Z,21.20
2018-10-16T09:41:39.323Z,17.60
2018-10-16T09:42:39.339Z,17.90
2018-10-16T09:43:39.332Z,15.90
2018-10-16T09:44:39.362Z,16.90
2018-10-16T09:45:39.478Z,21.90
2018-10-16T09:46:39.399Z,22.10
2018-10-16T09:47:39.400Z,17.90
2018-10-16T09:48:39.422Z,19.10
2018-10-16T09:49:39.512Z,20.80
2018-10-16T09:50:39.434Z,23.60
2018-10-16T09:51:39.568Z,22.20
2018-10-16T09:52:39.474Z,19.80
2018-10-16T09:53:39.492Z,21.30
2018-10-16T09:54:39.506Z,24.60
2018-10-16T09:55:39.515Z,22.90
2018-10-16T09:56:39.627Z,18.70
2018-10-16T09:57:39.546Z,22.20
2018-10-16T09:58:39.574Z,23.60
2018-10-16T09:59:39.574Z,24.00
2018-10-16T10:00:39.650Z,20.80
2018-10-16T10:01:39.705Z,22.30
2018-10-16T10:02:39.617Z,22.90
2018-10-16T10:03:39.629Z,19.90
2018-10-16T10:04:39.642Z,24.30
2018-10-16T10:05:39.660Z,24.80
2018-10-16T10:06:39.770Z,24.10
2018-10-16T10:07:39.666Z,28.20
2018-10-16T10:08:39.689Z,22.30
2018-10-16T10:09:39.700Z,23.70
2018-10-16T10:10:39.727Z,32.60
2018-10-16T10:11:39.840Z,24.80
2018-10-16T10:12:39.756Z,26.90
2018-10-16T10:13:39.755Z,26.00
2018-10-16T10:14:39.784Z,26.70
2018-10-16T10:15:39.800Z,26.60
2018-10-16T10:16:39.961Z,25.60
2018-10-16T10:17:39.809Z,25.40
2018-10-16T10:18:39.826Z,25.80
2018-10-16T10:19:39.852Z,30.20
2018-10-16T10:20:39.864Z,28.30
2018-10-16T10:21:39.978Z,24.90
2018-10-16T10:22:39.892Z,27.00
2018-10-16T10:23:39.906Z,25.80
2018-10-16T10:24:39.910Z,27.00
2018-10-16T10:25:39.918Z,29.60
2018-10-16T10:26:40.047Z,30.20
2018-10-16T10:27:39.964Z,32.20
2018-10-16T10:28:39.982Z,30.70
2018-10-16T10:29:40.034Z,33.90
2018-10-16T10:30:39.993Z,37.80
2018-10-16T10:31:40.121Z,38.80
2018-10-16T10:32:40.035Z,35.60
2018-10-16T10:33:40.048Z,31.50
2018-10-16T10:34:40.063Z,31.90
2018-10-16T10:35:40.218Z,35.00
2018-10-16T10:36:40.189Z,36.00
2018-10-16T10:37:40.108Z,31.90
2018-10-16T10:38:40.123Z,33.60
2018-10-16T10:39:40.119Z,34.60
2018-10-16T10:40:40.149Z,31.70
2018-10-16T10:41:40.297Z,36.30
2018-10-16T10:42:40.173Z,30.20
2018-10-16T10:43:40.186Z,29.60
2018-10-16T10:44:40.184Z,29.70
2018-10-16T10:45:40.206Z,30.20
2018-10-16T10:46:40.336Z,29.10
2018-10-16T10:47:40.243Z,33.90
2018-10-16T10:48:40.240Z,32.80
2018-10-16T10:49:40.279Z,34.70
2018-10-16T10:50:40.469Z,36.60
2018-10-16T10:51:40.648Z,32.70
2018-10-16T10:52:40.313Z,32.70
2018-10-16T10:53:40.335Z,23.20
2018-10-16T10:54:40.341Z,29.70
2018-10-16T10:55:40.357Z,28.00
2018-10-16T10:56:40.519Z,26.50
2018-10-16T10:57:40.385Z,25.90
2018-10-16T10:58:40.507Z,29.10
2018-10-16T10:59:40.414Z,26.90
2018-10-16T11:00:40.414Z,31.80
2018-10-16T11:01:40.533Z,29.70
2018-10-16T11:02:40.460Z,31.30
2018-10-16T11:03:40.632Z,30.00
2018-10-16T11:04:40.489Z,27.40
2018-10-16T11:05:40.506Z,26.00
2018-10-16T11:06:40.518Z,25.40
2018-10-16T11:07:40.529Z,25.50
2018-10-16T11:08:40.546Z,26.80
2018-10-16T11:09:40.542Z,26.00
2018-10-16T11:10:40.575Z,27.50
2018-10-16T11:11:40.674Z,22.90
2018-10-16T11:12:40.604Z,23.50
2018-10-16T11:13:40.616Z,25.30
2018-10-16T11:14:40.632Z,22.40
2018-10-16T11:15:40.632Z,25.70
2018-10-16T11:16:40.765Z,23.00
2018-10-16T11:17:40.675Z,27.80
2018-10-16T11:18:40.691Z,25.20
2018-10-16T11:19:40.708Z,27.00
2018-10-16T11:20:40.718Z,25.20
2018-10-16T11:21:40.835Z,27.60
2018-10-16T11:22:40.734Z,29.90
2018-10-16T11:23:40.763Z,21.80
2018-10-16T11:24:40.780Z,24.80
2018-10-16T11:25:40.784Z,24.20
2018-10-16T11:26:40.905Z,22.80
2018-10-16T11:27:40.823Z,24.10
2018-10-16T11:28:40.841Z,25.50
2018-10-16T11:29:40.854Z,24.80
2018-10-16T11:30:40.852Z,24.80
2018-10-16T11:31:40.872Z,25.00
2018-10-16T11:32:40.887Z,25.70
2018-10-16T11:33:40.959Z,24.40
2018-10-16T11:34:40.929Z,22.80
2018-10-16T11:35:40.941Z,24.30
2018-10-16T11:36:41.058Z,23.80
2018-10-16T11:37:40.959Z,23.80
2018-10-16T11:38:40.973Z,26.90
2018-10-16T11:39:40.998Z,20.80
2018-10-16T11:40:41.017Z,24.10
2018-10-16T11:41:41.290Z,23.00
2018-10-16T11:42:41.047Z,22.70
2018-10-16T11:43:41.050Z,22.40
2018-10-16T11:44:41.078Z,22.70
2018-10-16T11:45:41.196Z,21.30
2018-10-16T11:46:41.214Z,21.40
2018-10-16T11:47:41.123Z,19.70
2018-10-16T11:48:41.143Z,21.60
2018-10-16T11:49:41.153Z,18.70
2018-10-16T11:50:41.173Z,18.00
2018-10-16T11:51:41.173Z,20.10
2018-10-16T11:52:41.188Z,17.10
2018-10-16T11:53:41.215Z,13.40
2018-10-16T11:54:41.228Z,16.60
2018-10-16T11:55:41.245Z,16.50
2018-10-16T11:56:41.347Z,15.20
2018-10-16T11:57:41.271Z,18.90
2018-10-16T11:58:41.279Z,19.10
2018-10-16T11:59:41.316Z,15.30
2018-10-16T12:00:41.327Z,17.10
2018-10-16T12:01:41.335Z,17.80
2018-10-16T12:02:41.468Z,18.70
2018-10-16T12:03:41.369Z,16.70
2018-10-16T12:04:41.385Z,16.70
2018-10-16T12:05:41.397Z,15.70
2018-10-16T12:06:41.666Z,15.30
2018-10-16T12:07:41.433Z,17.20
2018-10-16T12:08:41.448Z,17.40
2018-10-16T12:09:41.462Z,20.20
2018-10-16T12:10:41.536Z,15.60
2018-10-16T12:11:41.496Z,20.00
2018-10-16T12:12:41.492Z,19.40
2018-10-16T12:13:41.522Z,15.90
2018-10-16T12:14:41.538Z,16.00
2018-10-16T12:15:41.553Z,16.60
2018-10-16T12:16:41.642Z,16.80
2018-10-16T12:17:41.583Z,17.90
2018-10-16T12:18:41.607Z,20.30
2018-10-16T12:19:41.709Z,16.80
2018-10-16T12:20:41.635Z,18.30
2018-10-16T12:21:41.754Z,18.80
2018-10-16T12:22:41.665Z,20.20
2018-10-16T12:23:41.879Z,19.30
2018-10-16T12:24:41.699Z,21.20
2018-10-16T12:25:41.718Z,20.00
2018-10-16T12:26:41.833Z,19.30
2018-10-16T12:27:41.741Z,22.30
2018-10-16T12:28:41.765Z,22.70
2018-10-16T12:29:41.781Z,20.80
2018-10-16T12:30:41.801Z,22.00
2018-10-16T12:31:41.917Z,21.40
2018-10-16T12:32:41.825Z,24.00
2018-10-16T12:33:41.848Z,22.20
2018-10-16T12:34:41.861Z,26.00
2018-10-16T12:35:41.897Z,22.10
2018-10-16T12:36:41.883Z,20.40
2018-10-16T12:37:41.893Z,20.70
2018-10-16T12:38:41.927Z,20.20
2018-10-16T12:39:42.003Z,18.30
2018-10-16T12:40:41.960Z,21.10
2018-10-16T12:41:41.973Z,21.90
2018-10-16T12:42:42.046Z,21.40
2018-10-16T12:43:42.171Z,19.40
2018-10-16T12:44:42.024Z,18.10
2018-10-16T12:45:42.027Z,15.60
2018-10-16T12:46:42.149Z,16.30
2018-10-16T12:47:42.077Z,17.00
2018-10-16T12:48:42.246Z,15.40
2018-10-16T12:49:42.109Z,14.80
2018-10-16T12:50:42.125Z,16.80
2018-10-16T12:51:42.145Z,15.20
2018-10-16T12:52:42.157Z,16.00
2018-10-16T12:53:42.177Z,14.40
2018-10-16T12:54:42.194Z,17.50
2018-10-16T12:55:42.205Z,18.80
2018-10-16T12:56:42.307Z,15.40
2018-10-16T12:57:42.243Z,16.60
2018-10-16T12:58:42.255Z,18.10
2018-10-16T12:59:42.277Z,17.70
2018-10-16T13:00:42.274Z,17.50